createdAt,value
2023-04-16T00:00:05.282Z,99926.86
2023-04-16T00:02:31.857Z,99929.98
2023-04-16T00:04:58.392Z,99933.30
2023-04-16T00:07:24.942Z,99928.05
2023-04-16T00:09:51.504Z,99926.13
2023-04-16T00:12:18.045Z,99923.48
2023-04-16T00:14:44.547Z,99923.64
2023-04-16T00:17:11.103Z,99921.86
2023-04-16T00:19:38.297Z,99921.50
2023-04-16T00:22:04.788Z,99923.20
2023-04-16T00:24:31.255Z,99920.04
2023-04-16T00:26:57.731Z,99921.05
2023-04-16T00:29:24.209Z,99925.39
2023-04-16T00:31:50.669Z,99926.06
2023-04-16T00:34:17.139Z,99926.58
2023-04-16T00:36:43.602Z,99931.27
2023-04-16T00:39:10.218Z,99926.55
2023-04-16T00:41:37.957Z,99925.15
2023-04-16T00:44:04.415Z,99932.98
2023-04-16T00:46:31.589Z,99931.40
2023-04-16T00:49:00.807Z,99928.06
2023-04-16T00:51:27.371Z,99927.71
2023-04-16T00:53:53.912Z,99925.08
2023-04-16T00:56:22.289Z,99923.86
2023-04-16T00:58:49.349Z,99921.57
2023-04-16T01:01:15.904Z,99922.27
2023-04-16T01:03:48.277Z,99923.48
2023-04-16T01:06:17.388Z,99928.52
2023-04-16T01:08:44.809Z,99931.95
2023-04-16T01:11:11.644Z,99935.59
2023-04-16T01:13:38.165Z,99936.44
2023-04-16T01:16:06.766Z,99939.20
2023-04-16T01:18:33.779Z,99940.56
2023-04-16T01:21:00.526Z,99942.45
2023-04-16T01:23:27.039Z,99933.54
2023-04-16T01:25:53.578Z,99938.58
2023-04-16T01:28:20.141Z,99938.92
2023-04-16T01:30:46.639Z,99939.25
2023-04-16T01:33:14.040Z,99945.15
2023-04-16T01:35:40.800Z,99949.66
2023-04-16T01:38:08.654Z,99948.64
2023-04-16T01:40:36.319Z,99949.88
2023-04-16T01:43:03.046Z,99945.16
2023-04-16T01:45:31.741Z,99944.45
2023-04-16T01:47:58.456Z,99938.52
2023-04-16T01:50:25.073Z,99934.45
2023-04-16T01:52:51.652Z,99934.23
2023-04-16T01:55:18.370Z,99940.79
2023-04-16T01:57:44.948Z,99947.36
2023-04-16T02:00:11.641Z,99952.39
2023-04-16T02:02:38.340Z,99956.05
2023-04-16T02:05:05.335Z,99961.79
2023-04-16T02:07:31.888Z,99965.13
2023-04-16T02:09:58.381Z,99969.67
2023-04-16T02:12:25.342Z,99970.54
2023-04-16T02:14:51.788Z,99969.66
2023-04-16T02:17:18.349Z,99964.25
2023-04-16T02:19:44.854Z,99964.59
2023-04-16T02:22:11.321Z,99961.80
2023-04-16T02:24:37.773Z,99966.11
2023-04-16T02:27:04.249Z,99967.64
2023-04-16T02:29:30.733Z,99960.30
2023-04-16T02:31:57.319Z,99965.84
2023-04-16T02:34:23.772Z,99966.34
2023-04-16T02:36:50.258Z,99959.69
2023-04-16T02:39:16.728Z,99959.48
2023-04-16T02:41:43.199Z,99958.23
2023-04-16T02:44:09.682Z,99954.73
2023-04-16T02:46:36.192Z,99955.73
2023-04-16T02:49:02.686Z,99952.89
2023-04-16T02:51:29.155Z,99955.80
2023-04-16T02:53:55.656Z,99963.10
2023-04-16T02:56:22.096Z,99962.02
2023-04-16T02:58:48.609Z,99963.88
2023-04-16T03:01:15.144Z,99963.64
2023-04-16T03:03:41.642Z,99965.18
2023-04-16T03:06:08.103Z,99963.27
2023-04-16T03:08:34.570Z,99963.40
2023-04-16T03:11:01.028Z,99958.13
2023-04-16T03:13:27.492Z,99963.48
2023-04-16T03:15:54.014Z,99961.68
2023-04-16T03:18:20.510Z,99968.80
2023-04-16T03:20:51.759Z,99970.88
2023-04-16T03:23:18.212Z,99977.33
2023-04-16T03:25:45.261Z,99982.72
2023-04-16T03:28:11.716Z,99985.63
2023-04-16T03:30:38.196Z,99995.88
2023-04-16T03:33:04.692Z,100004.73
2023-04-16T03:35:31.158Z,100004.40
2023-04-16T03:37:57.629Z,100008.06
2023-04-16T03:40:24.090Z,100010.51
2023-04-16T03:42:50.612Z,100015.08
2023-04-16T03:45:17.252Z,100011.48
2023-04-16T03:47:43.727Z,100013.59
2023-04-16T03:50:10.627Z,100016.39
2023-04-16T03:52:37.139Z,100025.25
2023-04-16T03:55:04.033Z,100025.10
2023-04-16T03:57:30.527Z,100019.77
2023-04-16T03:59:56.973Z,100018.39
2023-04-16T04:02:23.561Z,100017.59
2023-04-16T04:04:50.155Z,100016.77
2023-04-16T04:07:16.662Z,100015.77
2023-04-16T04:09:43.179Z,100018.42
2023-04-16T04:12:09.864Z,100023.54
2023-04-16T04:14:36.320Z,100024.99
2023-04-16T04:17:02.814Z,100024.71
2023-04-16T04:19:29.290Z,100024.05
2023-04-16T04:21:55.745Z,100029.30
2023-04-16T04:24:22.190Z,100037.48
2023-04-16T04:26:48.713Z,100046.38
2023-04-16T04:29:15.251Z,100050.98
2023-04-16T04:31:41.881Z,100054.86
2023-04-16T04:34:08.433Z,100047.74
2023-04-16T04:36:34.906Z,100048.41
2023-04-16T04:39:01.496Z,100050.33
2023-04-16T04:41:28.042Z,100053.29
2023-04-16T04:43:54.512Z,100056.48
2023-04-16T04:46:21.189Z,100058.27
2023-04-16T04:48:47.726Z,100061.44
2023-04-16T04:51:14.229Z,100056.95
2023-04-16T04:53:40.720Z,100056.80
2023-04-16T04:56:12.357Z,100058.38
2023-04-16T04:58:40.590Z,100061.37
2023-04-16T05:01:07.142Z,100059.48
2023-04-16T05:03:33.805Z,100065.41
2023-04-16T05:06:00.301Z,100064.70
2023-04-16T05:08:26.757Z,100060.01
2023-04-16T05:10:53.186Z,100052.52
2023-04-16T05:13:19.674Z,100048.86
2023-04-16T05:15:46.224Z,100048.05
2023-04-16T05:18:12.699Z,100052.10
2023-04-16T05:20:39.167Z,100055.81
2023-04-16T05:23:05.761Z,100059.35
2023-04-16T05:25:32.234Z,100063.08
2023-04-16T05:27:58.716Z,100066.47
2023-04-16T05:30:25.177Z,100073.89
2023-04-16T05:32:51.723Z,100080.20
2023-04-16T05:35:18.240Z,100083.92
2023-04-16T05:37:44.727Z,100083.95
2023-04-16T05:40:13.550Z,100086.10
2023-04-16T05:42:40.053Z,100088.25
2023-04-16T05:45:07.028Z,100088.50
2023-04-16T05:47:33.514Z,100093.10
2023-04-16T05:49:59.983Z,100095.76
2023-04-16T05:52:26.406Z,100098.25
2023-04-16T05:54:52.915Z,100097.41
2023-04-16T05:57:19.383Z,100097.60
2023-04-16T05:59:45.845Z,100096.75
2023-04-16T06:02:12.520Z,100097.11
2023-04-16T06:04:39.054Z,100097.84
2023-04-16T06:07:05.545Z,100095.08
2023-04-16T06:09:32.002Z,100090.23
2023-04-16T06:11:58.610Z,100090.78
2023-04-16T06:14:25.168Z,100087.88
2023-04-16T06:16:51.690Z,100086.36
2023-04-16T06:19:18.173Z,100089.38
2023-04-16T06:21:44.732Z,100082.59
2023-04-16T06:24:11.260Z,100085.75
2023-04-16T06:26:37.740Z,100084.71
2023-04-16T06:29:04.476Z,100081.22
2023-04-16T06:31:31.152Z,100079.66
2023-04-16T06:33:57.670Z,100073.20
2023-04-16T06:36:24.215Z,100078.11
2023-04-16T06:38:50.691Z,100076.89
2023-04-16T06:41:17.202Z,100078.28
2023-04-16T06:43:44.105Z,100070.21
2023-04-16T06:46:10.625Z,100067.73
2023-04-16T06:48:37.112Z,100063.50
2023-04-16T06:51:04.103Z,100064.50
2023-04-16T06:53:30.641Z,100069.54
2023-04-16T06:55:57.121Z,100071.95
2023-04-16T06:58:23.670Z,100076.42
2023-04-16T07:00:50.325Z,100079.33
2023-04-16T07:03:16.947Z,100078.40
2023-04-16T07:05:43.534Z,100079.91
2023-04-16T07:08:10.247Z,100082.46
2023-04-16T07:10:36.769Z,100085.23
2023-04-16T07:13:03.301Z,100082.04
2023-04-16T07:15:29.839Z,100082.67
2023-04-16T07:17:56.421Z,100080.19
2023-04-16T07:20:22.894Z,100077.20
2023-04-16T07:22:49.496Z,100077.92
2023-04-16T07:25:16.043Z,100080.42
2023-04-16T07:27:42.616Z,100074.49
2023-04-16T07:30:10.245Z,100079.21
2023-04-16T07:32:36.866Z,100076.54
2023-04-16T07:35:03.390Z,100078.17
2023-04-16T07:37:29.886Z,100076.52
2023-04-16T07:39:57.387Z,100079.41
2023-04-16T07:42:23.997Z,100079.27
2023-04-16T07:44:50.454Z,100080.68
2023-04-16T07:47:16.953Z,100078.95
2023-04-16T07:49:43.476Z,100087.04
2023-04-16T07:52:10.022Z,100083.70
2023-04-16T07:54:36.515Z,100086.11
2023-04-16T07:57:03.103Z,100087.69
2023-04-16T07:59:29.801Z,100086.39
2023-04-16T08:01:56.756Z,100080.15
2023-04-16T08:04:23.555Z,100083.99
2023-04-16T08:06:51.193Z,100078.70
2023-04-16T08:09:19.546Z,100084.55
2023-04-16T08:11:46.159Z,100082.16
2023-04-16T08:14:12.669Z,100080.55
2023-04-16T08:16:39.176Z,100078.02
2023-04-16T08:19:05.650Z,100079.08
2023-04-16T08:21:33.336Z,100085.35
2023-04-16T08:23:59.979Z,100089.68
2023-04-16T08:26:26.447Z,100092.94
2023-04-16T08:28:52.942Z,100094.52
2023-04-16T08:31:19.565Z,100094.79
2023-04-16T08:33:46.126Z,100094.54
2023-04-16T08:36:12.662Z,100098.67
2023-04-16T08:38:39.746Z,100101.29
2023-04-16T08:41:09.231Z,100098.35
2023-04-16T08:43:38.362Z,100096.42
2023-04-16T08:46:08.918Z,100100.38
2023-04-16T08:48:37.098Z,100097.52
2023-04-16T08:51:03.716Z,100096.89
2023-04-16T08:53:43.896Z,100100.86
2023-04-16T08:56:11.748Z,100103.01
2023-04-16T08:58:40.200Z,100107.17
2023-04-16T09:01:08.902Z,100111.46
2023-04-16T09:03:36.674Z,100109.85
2023-04-16T09:06:04.589Z,100116.05
2023-04-16T09:08:32.011Z,100117.63
2023-04-16T09:10:59.812Z,100123.17
2023-04-16T09:13:26.919Z,100122.63
2023-04-16T09:15:54.397Z,100125.72
2023-04-16T09:18:20.994Z,100132.16
2023-04-16T09:20:49.536Z,100134.39
2023-04-16T09:23:16.006Z,100133.05
2023-04-16T09:25:42.589Z,100134.19
2023-04-16T09:28:12.265Z,100133.91
2023-04-16T09:30:38.840Z,100135.78
2023-04-16T09:33:33.259Z,100139.52
2023-04-16T09:36:01.941Z,100139.36
2023-04-16T09:38:46.377Z,100138.68
2023-04-16T09:41:13.794Z,100141.66
2023-04-16T09:43:40.254Z,100142.70
2023-04-16T09:46:08.100Z,100144.05
2023-04-16T09:48:35.111Z,100140.60
2023-04-16T09:51:01.792Z,100137.92
2023-04-16T09:53:30.367Z,100135.83
2023-04-16T09:56:01.408Z,100134.41
2023-04-16T09:58:28.452Z,100126.60
2023-04-16T10:01:10.437Z,100124.81
2023-04-16T10:03:38.912Z,100120.86
2023-04-16T10:06:14.888Z,100113.67
2023-04-16T10:08:47.879Z,100115.01
2023-04-16T10:11:17.813Z,100113.48
2023-04-16T10:13:44.379Z,100107.25
2023-04-16T10:16:11.395Z,100103.30
2023-04-16T10:18:43.596Z,100101.33
2023-04-16T10:21:10.356Z,100096.05
2023-04-16T10:23:38.303Z,100101.09
2023-04-16T10:26:05.353Z,100094.45
2023-04-16T10:28:32.330Z,100095.02
2023-04-16T10:31:01.157Z,100092.67
2023-04-16T10:33:30.193Z,100089.58
2023-04-16T10:36:22.682Z,100082.77
2023-04-16T10:38:56.765Z,100084.52
2023-04-16T10:41:23.355Z,100082.37
2023-04-16T10:43:50.952Z,100082.48
2023-04-16T10:46:41.705Z,100081.80
2023-04-16T10:49:19.705Z,100077.49
2023-04-16T10:51:57.449Z,100080.52
2023-04-16T10:54:29.133Z,100072.02
2023-04-16T10:57:04.271Z,100067.95
2023-04-16T10:59:32.919Z,100067.08
2023-04-16T11:02:01.105Z,100066.50
2023-04-16T11:04:30.167Z,100064.31
2023-04-16T11:07:03.809Z,100069.47
2023-04-16T11:10:03.465Z,100072.00
2023-04-16T11:12:29.941Z,100068.94
2023-04-16T11:15:05.361Z,100070.35
2023-04-16T11:17:44.221Z,100066.92
2023-04-16T11:20:18.062Z,100068.56
2023-04-16T11:22:47.679Z,100065.75
2023-04-16T11:25:19.885Z,100067.90
2023-04-16T11:27:46.353Z,100067.23
2023-04-16T11:30:13.161Z,100070.55
2023-04-16T11:32:40.101Z,100069.36
2023-04-16T11:35:25.148Z,100073.29
2023-04-16T11:37:56.407Z,100072.52
2023-04-16T11:40:23.400Z,100072.10
2023-04-16T11:42:49.895Z,100073.48
2023-04-16T11:45:16.417Z,100073.66
2023-04-16T11:47:51.019Z,100070.74
2023-04-16T11:50:22.214Z,100071.79
2023-04-16T11:52:49.972Z,100069.33
2023-04-16T11:55:16.587Z,100066.77
2023-04-16T11:57:43.159Z,100064.51
2023-04-16T12:00:10.648Z,100063.96
2023-04-16T12:02:42.729Z,100065.35
2023-04-16T12:05:27.370Z,100062.61
2023-04-16T12:07:54.094Z,100064.83
2023-04-16T12:10:20.736Z,100062.79
2023-04-16T12:12:47.310Z,100061.79
2023-04-16T12:15:13.853Z,100058.62
2023-04-16T12:17:40.428Z,100057.61
2023-04-16T12:20:12.088Z,100053.36
2023-04-16T12:22:40.523Z,100050.98
2023-04-16T12:25:33.282Z,100049.21
2023-04-16T12:27:59.815Z,100051.70
2023-04-16T12:30:27.086Z,100050.02
2023-04-16T12:33:16.994Z,100046.89
2023-04-16T12:35:43.535Z,100043.84
2023-04-16T12:38:10.623Z,100044.16
2023-04-16T12:40:37.730Z,100041.50
2023-04-16T12:43:04.334Z,100037.16
2023-04-16T12:45:30.840Z,100037.80
2023-04-16T12:47:57.433Z,100032.75
2023-04-16T12:50:24.137Z,100028.93
2023-04-16T12:52:50.653Z,100025.42
2023-04-16T12:55:17.335Z,100024.52
2023-04-16T12:57:44.749Z,100020.38
2023-04-16T13:00:11.756Z,100021.30
2023-04-16T13:02:38.362Z,100021.91
2023-04-16T13:05:05.152Z,100023.63
2023-04-16T13:07:31.664Z,100020.23
2023-04-16T13:09:58.161Z,100017.60
2023-04-16T13:12:24.692Z,100013.98
2023-04-16T13:14:51.146Z,100014.55
2023-04-16T13:17:17.640Z,100009.44
2023-04-16T13:19:44.123Z,100006.34
2023-04-16T13:22:10.589Z,100008.54
2023-04-16T13:24:37.242Z,100008.22
2023-04-16T13:27:03.789Z,100005.89
2023-04-16T13:29:30.428Z,100002.09
2023-04-16T13:31:57.737Z,100000.95
2023-04-16T13:34:24.248Z,100001.30
2023-04-16T13:36:50.768Z,99995.73
2023-04-16T13:39:17.278Z,99993.02
2023-04-16T13:41:43.801Z,99993.02
2023-04-16T13:44:10.289Z,99993.73
2023-04-16T13:46:36.876Z,99990.75
2023-04-16T13:49:03.426Z,99988.52
2023-04-16T13:51:29.936Z,99983.63
2023-04-16T13:53:56.444Z,99983.84
2023-04-16T13:56:23.135Z,99983.02
2023-04-16T13:58:49.764Z,99980.41
2023-04-16T14:01:16.402Z,99982.05
2023-04-16T14:03:43.035Z,99981.05
2023-04-16T14:06:09.659Z,99985.67
2023-04-16T14:08:36.229Z,99983.20
2023-04-16T14:11:02.739Z,99987.85
2023-04-16T14:13:29.267Z,99988.05
2023-04-16T14:15:55.849Z,99989.04
2023-04-16T14:18:22.504Z,99987.73
2023-04-16T14:20:48.940Z,99990.41
2023-04-16T14:23:15.440Z,99988.69
2023-04-16T14:25:42.057Z,99986.73
2023-04-16T14:28:08.557Z,99989.44
2023-04-16T14:30:35.027Z,99986.88
2023-04-16T14:33:01.583Z,99983.86
2023-04-16T14:35:28.399Z,99979.79
2023-04-16T14:37:55.797Z,99973.77
2023-04-16T14:40:22.292Z,99972.16
2023-04-16T14:42:48.778Z,99971.52
2023-04-16T14:45:15.278Z,99970.95
2023-04-16T14:47:41.805Z,99972.19
2023-04-16T14:50:08.738Z,99973.05
2023-04-16T14:52:35.195Z,99969.28
2023-04-16T14:55:01.676Z,99971.02
2023-04-16T14:57:28.175Z,99965.38
2023-04-16T14:59:54.645Z,99961.95
2023-04-16T15:02:21.363Z,99961.18
2023-04-16T15:04:48.026Z,99957.61
2023-04-16T15:07:14.505Z,99954.55
2023-04-16T15:09:41.000Z,99950.45
2023-04-16T15:12:07.517Z,99951.39
2023-04-16T15:14:34.213Z,99950.38
2023-04-16T15:17:00.925Z,99949.05
2023-04-16T15:19:27.556Z,99951.07
2023-04-16T15:21:54.067Z,99953.61
2023-04-16T15:24:20.560Z,99950.19
2023-04-16T15:26:47.091Z,99948.95
2023-04-16T15:29:13.605Z,99946.59
2023-04-16T15:31:40.164Z,99948.92
2023-04-16T15:34:06.816Z,99950.65
2023-04-16T15:36:33.351Z,99949.86
2023-04-16T15:38:59.814Z,99949.08
2023-04-16T15:41:29.035Z,99954.98
2023-04-16T15:43:55.538Z,99956.72
2023-04-16T15:46:22.191Z,99953.39
2023-04-16T15:48:48.662Z,99958.77
2023-04-16T15:51:15.468Z,99958.49
2023-04-16T15:53:42.038Z,99959.80
2023-04-16T15:56:08.587Z,99957.33
2023-04-16T15:58:35.060Z,99962.42
2023-04-16T16:01:01.518Z,99964.66
2023-04-16T16:03:28.110Z,99964.12
2023-04-16T16:05:54.737Z,99962.85
2023-04-16T16:08:21.285Z,99967.96
2023-04-16T16:10:47.782Z,99969.66
2023-04-16T16:13:14.281Z,99971.01
2023-04-16T16:15:40.856Z,99971.34
2023-04-16T16:18:07.624Z,99972.94
2023-04-16T16:20:34.235Z,99973.32
2023-04-16T16:23:00.921Z,99976.38
2023-04-16T16:25:27.467Z,99977.52
2023-04-16T16:27:53.988Z,99977.38
2023-04-16T16:30:20.472Z,99984.60
2023-04-16T16:32:47.022Z,99987.00
2023-04-16T16:35:13.594Z,99984.52
2023-04-16T16:37:40.092Z,99983.89
2023-04-16T16:40:07.054Z,99982.71
2023-04-16T16:42:33.594Z,99984.58
2023-04-16T16:45:00.245Z,99981.69
2023-04-16T16:47:26.756Z,99986.55
2023-04-16T16:49:53.325Z,99985.56
2023-04-16T16:52:22.890Z,99986.45
2023-04-16T16:54:49.491Z,99989.12
2023-04-16T16:57:18.050Z,99991.23
2023-04-16T16:59:44.586Z,99996.07
2023-04-16T17:02:11.201Z,99993.32
2023-04-16T17:04:37.877Z,99996.41
2023-04-16T17:07:04.451Z,99997.11
2023-04-16T17:09:30.935Z,99997.70
2023-04-16T17:11:57.429Z,99999.30
2023-04-16T17:14:24.229Z,100002.50
2023-04-16T17:16:50.858Z,100002.83
2023-04-16T17:19:17.439Z,100003.77
2023-04-16T17:21:44.368Z,100002.83
2023-04-16T17:24:11.006Z,100006.62
2023-04-16T17:26:37.704Z,100009.66
2023-04-16T17:29:04.179Z,100007.64
2023-04-16T17:31:30.690Z,100003.35
2023-04-16T17:33:57.163Z,100005.09
2023-04-16T17:36:23.662Z,100004.61
2023-04-16T17:38:50.123Z,100009.33
2023-04-16T17:41:16.583Z,100008.96
2023-04-16T17:43:43.181Z,100011.46
2023-04-16T17:46:12.757Z,100014.14
2023-04-16T17:48:39.308Z,100014.83
2023-04-16T17:51:13.366Z,100018.89
2023-04-16T17:53:39.893Z,100021.02
2023-04-16T17:56:06.780Z,100025.05
2023-04-16T17:58:33.282Z,100025.37
2023-04-16T18:00:59.814Z,100028.84
2023-04-16T18:03:26.490Z,100030.62
2023-04-16T18:05:53.097Z,100030.12
2023-04-16T18:08:19.563Z,100030.80
2023-04-16T18:10:46.052Z,100029.21
2023-04-16T18:13:12.568Z,100025.17
2023-04-16T18:15:39.120Z,100023.11
2023-04-16T18:18:06.013Z,100033.17
2023-04-16T18:20:32.529Z,100035.64
2023-04-16T18:22:59.034Z,100040.39
2023-04-16T18:25:33.953Z,100041.77
2023-04-16T18:28:02.078Z,100048.86
2023-04-16T18:30:28.727Z,100051.64
2023-04-16T18:33:21.434Z,100052.48
2023-04-16T18:35:41.700Z,100054.44
2023-04-16T18:38:08.279Z,100050.39
2023-04-16T18:40:36.011Z,100047.13
2023-04-16T18:43:05.565Z,100042.82
2023-04-16T18:48:00.070Z,100041.85
2023-04-16T18:50:26.597Z,100039.98
2023-04-16T18:52:53.158Z,100036.83
2023-04-16T18:55:19.646Z,100039.69
2023-04-16T18:57:46.186Z,100040.28
2023-04-16T19:00:13.157Z,100041.05
2023-04-16T19:02:40.331Z,100043.02
2023-04-16T19:05:07.868Z,100048.86
2023-04-16T19:07:34.487Z,100046.23
2023-04-16T19:10:01.360Z,100044.68
2023-04-16T19:12:28.705Z,100044.19
2023-04-16T19:14:55.269Z,100042.83
2023-04-16T19:17:21.889Z,100044.81
2023-04-16T19:19:48.555Z,100041.05
2023-04-16T19:22:15.016Z,100041.86
2023-04-16T19:24:41.526Z,100038.94
2023-04-16T19:27:08.060Z,100039.01
2023-04-16T19:29:35.143Z,100029.92
2023-04-16T19:32:02.363Z,100030.53
2023-04-16T19:34:29.067Z,100027.61
2023-04-16T19:36:55.516Z,100030.84
2023-04-16T19:39:23.233Z,100029.16
2023-04-16T19:41:49.747Z,100034.84
2023-04-16T19:44:16.273Z,100031.92
2023-04-16T19:46:42.899Z,100032.48
2023-04-16T19:49:09.712Z,100026.23
2023-04-16T19:51:36.566Z,100023.32
2023-04-16T19:54:03.039Z,100021.13
2023-04-16T19:56:29.497Z,100024.02
2023-04-16T19:58:55.981Z,100025.14
2023-04-16T20:01:22.668Z,100023.95
2023-04-16T20:03:49.327Z,100023.98
2023-04-16T20:06:16.243Z,100025.79
2023-04-16T20:08:42.942Z,100024.58
2023-04-16T20:11:09.942Z,100023.54
2023-04-16T20:13:36.393Z,100026.71
2023-04-16T20:16:03.393Z,100024.62
2023-04-16T20:18:30.035Z,100025.15
2023-04-16T20:20:56.534Z,100024.48
2023-04-16T20:23:23.079Z,100018.32
2023-04-16T20:25:49.631Z,100023.63
2023-04-16T20:28:16.167Z,100019.78
2023-04-16T20:30:42.745Z,100021.35
2023-04-16T20:33:09.379Z,100017.49
2023-04-16T20:35:36.268Z,100019.95
2023-04-16T20:38:02.750Z,100020.84
2023-04-16T20:40:29.423Z,100018.37
2023-04-16T20:42:57.521Z,100016.09
2023-04-16T20:45:24.054Z,100015.76
2023-04-16T20:47:50.533Z,100012.98
2023-04-16T20:50:17.116Z,100012.33
2023-04-16T20:52:43.626Z,100011.30
2023-04-16T20:55:10.175Z,100010.45
2023-04-16T20:57:36.643Z,100014.68
2023-04-16T21:00:03.306Z,100016.78
2023-04-16T21:02:29.988Z,100022.42
2023-04-16T21:04:56.637Z,100021.54
2023-04-16T21:07:23.109Z,100007.25
2023-04-16T21:09:49.683Z,100000.41
2023-04-16T21:12:16.134Z,99999.56
2023-04-16T21:14:42.609Z,99995.73
2023-04-16T21:17:09.077Z,99989.46
2023-04-16T21:19:35.677Z,99988.42
2023-04-16T21:22:02.271Z,99987.71
2023-04-16T21:24:29.021Z,99991.91
2023-04-16T21:26:55.521Z,99995.76
2023-04-16T21:29:22.057Z,99994.52
2023-04-16T21:31:48.609Z,100000.66
2023-04-16T21:34:15.220Z,99996.11
2023-04-16T21:36:41.755Z,99992.98
2023-04-16T21:39:08.211Z,99996.70
2023-04-16T21:41:34.742Z,99996.20
2023-04-16T21:44:01.204Z,99998.50
2023-04-16T21:46:27.703Z,99998.36
2023-04-16T21:48:54.197Z,99998.02
2023-04-16T21:51:20.718Z,99992.96
2023-04-16T21:53:47.200Z,99992.81
2023-04-16T21:56:13.699Z,99986.88
2023-04-16T21:58:40.207Z,99986.42
2023-04-16T22:01:08.918Z,99987.00
2023-04-16T22:03:37.039Z,99986.02
2023-04-16T22:06:03.812Z,99990.82
2023-04-16T22:08:30.537Z,99993.14
2023-04-16T22:10:58.639Z,99990.51
2023-04-16T22:13:25.780Z,99985.63
2023-04-16T22:15:53.195Z,99984.25
2023-04-16T22:18:19.675Z,99980.77
2023-04-16T22:20:46.329Z,99980.25
2023-04-16T22:23:13.601Z,99976.08
2023-04-16T22:25:40.084Z,99976.30
2023-04-16T22:28:06.623Z,99972.62
2023-04-16T22:30:33.156Z,99973.34
2023-04-16T22:32:59.747Z,99970.75
2023-04-16T22:35:26.260Z,99969.89
2023-04-16T22:37:52.724Z,99969.55
2023-04-16T22:40:19.176Z,99965.37
2023-04-16T22:42:45.662Z,99967.50
2023-04-16T22:45:12.137Z,99963.85
2023-04-16T22:47:38.905Z,99966.70
2023-04-16T22:50:06.128Z,99964.61
2023-04-16T22:52:32.612Z,99964.29
2023-04-16T22:54:59.110Z,99960.09
2023-04-16T22:57:25.714Z,99959.08
2023-04-16T22:59:52.722Z,99956.28
2023-04-16T23:02:20.444Z,99953.98
2023-04-16T23:04:47.251Z,99951.17
2023-04-16T23:07:14.644Z,99950.66
2023-04-16T23:09:41.152Z,99951.89
2023-04-16T23:12:07.994Z,99950.48
2023-04-16T23:14:34.617Z,99946.97
2023-04-16T23:17:01.090Z,99948.03
2023-04-16T23:19:27.564Z,99943.30
2023-04-16T23:21:53.996Z,99941.90
2023-04-16T23:24:20.500Z,99939.81
2023-04-16T23:26:47.006Z,99941.23
2023-04-16T23:29:13.629Z,99936.65
2023-04-16T23:31:40.307Z,99935.77
2023-04-16T23:34:06.796Z,99934.20
2023-04-16T23:36:33.307Z,99930.86
2023-04-16T23:38:59.743Z,99930.52
2023-04-16T23:41:26.222Z,99933.13
2023-04-16T23:43:52.720Z,99925.92
2023-04-16T23:46:19.192Z,99924.49
2023-04-16T23:48:45.664Z,99922.38
2023-04-16T23:51:12.139Z,99923.08
2023-04-16T23:53:38.585Z,99921.48
2023-04-16T23:56:05.372Z,99917.43
2023-04-16T23:58:31.912Z,99914.58
